Карточка аэропорта UNNT

Внимание!
Информация на этой странице в стадии наполнения.
Если вы не увидели какой-то информации, или заметили неточность - пожалуйста сообщите нам!
Спасибо!
Команда RU-STAFF
Название аэропортаТолмачево
Название аэропорта (англ.)Tolmachevo
Превышение367 ft. (111.9 m.)
Координаты55°0.77999999999989', 82°38.178'
Высота перехода6000ft
Эшелон переходаQNH>=1013hPa:FL70; QNH<1013hPa:FL80; QNH<977hPa:FL90
Коды ответчика5201-5227
Зона ОрВДНовосибирск РПИ (UNNT)
Данные METARUNNT 200630Z 24003MPS 210V280 9999 SCT036 23/16 Q1001 R25/090070 R34/////// NOSIG RMK QFE741/0988
Проноз погоды (TAF)UNNT 200500Z 2006/2106 22003G08MPS 9999 BKN040CB TX26/2009Z TN18/2022Z TEMPO 2006/2106 -TSRA BKN016CB
NOTAMshow/hide NOTAM
AWOS   TABLE

Информация о ВПП

ВПП Длина ВПП (м.) Покрытие Курс ВПП Частота ILS
253597Асфальтобетон252108.5
163602Цементобетон161109.7
073597Асфальтобетон72110.1
343602Цементобетон341111.1

Диспетчерские позиции

Позывной Наименование органа УВД Частота
UNNT_TWRНовосибирск-Вышка118.5
UNNT_R_APPНовосибирск-Круг122.0
UNNT_GNDНовосибирск-Руление121.7
UNNT_DEL Новосибирск-Деливери135.4
UNNT_APPНовосибирск-Подход127.5



Спутниковое изображение